createdAt,value
2022-12-13T00:00:50.582Z,87.11
2022-12-13T00:01:54.543Z,87.05
2022-12-13T00:02:56.553Z,86.95
2022-12-13T00:04:01.142Z,87.04
2022-12-13T00:05:04.171Z,86.77
2022-12-13T00:06:06.360Z,86.86
2022-12-13T00:07:09.138Z,86.75
2022-12-13T00:08:11.483Z,86.85
2022-12-13T00:09:14.842Z,86.67
2022-12-13T00:10:16.795Z,86.55
2022-12-13T00:11:19.644Z,86.65
2022-12-13T00:12:23.025Z,86.76
2022-12-13T00:13:26.601Z,86.66
2022-12-13T00:14:29.529Z,86.95
2022-12-13T00:15:31.323Z,86.71
2022-12-13T00:16:34.111Z,86.83
2022-12-13T00:17:36.026Z,86.54
2022-12-13T00:18:38.967Z,86.49
2022-12-13T00:19:41.709Z,86.39
2022-12-13T00:20:43.504Z,86.61
2022-12-13T00:21:46.604Z,86.67
2022-12-13T00:22:48.465Z,86.82
2022-12-13T00:23:51.722Z,86.61
2022-12-13T00:24:54.335Z,86.68
2022-12-13T00:25:57.090Z,86.58
2022-12-13T00:26:59.002Z,86.46
2022-12-13T00:28:03.625Z,86.64
2022-12-13T00:29:06.657Z,86.76
2022-12-13T00:30:10.528Z,86.45
2022-12-13T00:31:51.651Z,86.50
2022-12-13T00:32:34.946Z,86.65
2022-12-13T00:33:37.821Z,86.54
2022-12-13T00:34:40.550Z,86.62
2022-12-13T00:35:42.430Z,86.56
2022-12-13T00:36:45.570Z,86.65
2022-12-13T00:37:47.292Z,86.52
2022-12-13T00:39:00.842Z,86.54
2022-12-13T00:40:03.834Z,86.50
2022-12-13T00:41:13.301Z,86.30
2022-12-13T00:42:16.013Z,86.28
2022-12-13T00:43:19.178Z,86.27
2022-12-13T00:44:21.923Z,86.29
2022-12-13T00:45:24.818Z,86.29
2022-12-13T00:46:27.800Z,86.21
2022-12-13T00:47:30.600Z,86.29
2022-12-13T00:48:32.328Z,86.24
2022-12-13T00:49:35.173Z,86.27
2022-12-13T00:50:37.771Z,86.31
2022-12-13T00:51:40.997Z,86.39
2022-12-13T00:52:42.814Z,86.29
2022-12-13T00:53:45.946Z,86.29
2022-12-13T00:54:48.826Z,86.21
2022-12-13T00:55:51.078Z,86.15
2022-12-13T00:56:54.055Z,85.98
2022-12-13T00:57:55.897Z,85.91
2022-12-13T00:59:00.918Z,85.90
2022-12-13T01:00:04.379Z,86.09
2022-12-13T01:01:07.970Z,86.33
2022-12-13T01:02:10.789Z,86.29
2022-12-13T01:03:20.673Z,86.17
2022-12-13T01:04:23.554Z,85.96
2022-12-13T01:06:02.245Z,86.18
2022-12-13T01:06:51.353Z,86.17
2022-12-13T01:07:53.179Z,86.06
2022-12-13T01:08:56.566Z,85.94
2022-12-13T01:09:59.397Z,86.16
2022-12-13T01:11:01.201Z,86.13
2022-12-13T01:12:06.924Z,86.33
2022-12-13T01:13:08.665Z,86.10
2022-12-13T01:14:12.772Z,86.12
2022-12-13T01:15:14.949Z,85.96
2022-12-13T01:16:18.686Z,85.96
2022-12-13T01:17:21.744Z,86.12
2022-12-13T01:18:23.571Z,86.09
2022-12-13T01:19:27.562Z,85.99
2022-12-13T01:20:29.307Z,86.17
2022-12-13T01:21:32.181Z,85.97
2022-12-13T01:22:33.969Z,85.96
2022-12-13T01:23:36.942Z,85.84
2022-12-13T01:24:40.008Z,85.91
2022-12-13T01:25:41.744Z,85.72
2022-12-13T01:26:44.855Z,85.77
2022-12-13T01:27:47.171Z,85.68
2022-12-13T01:28:50.428Z,85.63
2022-12-13T01:29:53.521Z,85.76
2022-12-13T01:30:57.540Z,85.69
2022-12-13T01:31:59.548Z,85.67
2022-12-13T01:33:02.287Z,85.64
2022-12-13T01:34:19.262Z,85.72
2022-12-13T01:35:21.066Z,85.74
2022-12-13T01:36:27.511Z,85.61
2022-12-13T01:37:31.079Z,85.66
2022-12-13T01:38:39.223Z,85.75
2022-12-13T01:39:41.987Z,85.68
2022-12-13T01:40:45.397Z,85.76
2022-12-13T01:41:50.595Z,85.83
2022-12-13T01:42:53.714Z,85.75
2022-12-13T01:43:58.032Z,85.95
2022-12-13T01:45:07.814Z,85.69
2022-12-13T01:46:10.632Z,86.02
2022-12-13T01:47:15.970Z,86.03
2022-12-13T01:48:22.007Z,85.97
2022-12-13T01:49:23.796Z,85.78
2022-12-13T01:50:31.900Z,85.86
2022-12-13T01:51:36.442Z,85.69
2022-12-13T01:52:39.530Z,85.93
2022-12-13T01:54:02.611Z,85.63
2022-12-13T01:55:07.491Z,85.82
2022-12-13T01:56:11.912Z,85.62
2022-12-13T01:57:15.935Z,85.47
2022-12-13T01:58:19.518Z,85.83
2022-12-13T01:59:22.255Z,85.69
2022-12-13T02:00:27.549Z,85.68
2022-12-13T02:01:29.681Z,85.73
2022-12-13T02:02:32.485Z,85.54
2022-12-13T02:03:35.182Z,85.66
2022-12-13T02:04:43.805Z,85.62
2022-12-13T02:05:53.113Z,85.60
2022-12-13T02:06:56.343Z,85.68
2022-12-13T02:08:01.178Z,85.83
2022-12-13T02:09:05.200Z,85.77
2022-12-13T02:10:09.543Z,85.69
2022-12-13T02:11:11.711Z,85.84
2022-12-13T02:12:14.810Z,85.72
2022-12-13T02:13:16.723Z,85.91
2022-12-13T02:14:19.461Z,86.09
2022-12-13T02:15:21.909Z,86.00
2022-12-13T02:16:35.359Z,85.88
2022-12-13T02:17:52.314Z,85.85
2022-12-13T02:19:06.836Z,86.12
2022-12-13T02:20:26.863Z,85.89
2022-12-13T02:21:34.313Z,85.90
2022-12-13T02:23:05.154Z,85.73
2022-12-13T02:24:40.758Z,85.96
2022-12-13T02:26:00.191Z,86.23
2022-12-13T02:27:10.241Z,86.06
2022-12-13T02:28:31.289Z,86.06
2022-12-13T02:30:19.631Z,86.08
2022-12-13T02:31:28.306Z,86.43
2022-12-13T02:32:33.287Z,86.30
2022-12-13T02:33:42.687Z,86.16
2022-12-13T02:34:47.195Z,86.17
2022-12-13T02:35:54.601Z,86.13
2022-12-13T02:36:59.413Z,85.94
2022-12-13T02:38:06.913Z,86.14
2022-12-13T02:39:11.888Z,86.00
2022-12-13T02:40:20.016Z,86.29
2022-12-13T02:41:27.706Z,86.38
2022-12-13T02:42:31.741Z,86.10
2022-12-13T02:43:45.224Z,85.84
2022-12-13T02:44:52.457Z,85.96
2022-12-13T02:45:56.975Z,86.38
2022-12-13T02:47:03.188Z,85.80
2022-12-13T02:48:07.191Z,86.12
2022-12-13T02:49:10.300Z,85.90
2022-12-13T02:50:14.572Z,85.95
2022-12-13T02:51:16.943Z,85.66
2022-12-13T02:52:22.201Z,85.61
2022-12-13T02:53:25.692Z,86.17
2022-12-13T02:54:28.436Z,85.71
2022-12-13T02:55:32.381Z,85.71
2022-12-13T02:56:35.138Z,85.79
2022-12-13T02:57:38.481Z,86.31
2022-12-13T02:58:43.998Z,86.10
2022-12-13T02:59:45.865Z,85.99
2022-12-13T03:00:56.614Z,86.32
2022-12-13T03:02:10.857Z,85.83
2022-12-13T03:03:21.829Z,85.80
2022-12-13T03:04:33.697Z,85.85
2022-12-13T03:05:59.397Z,85.89
2022-12-13T03:07:08.684Z,85.79
2022-12-13T03:08:19.692Z,85.88
2022-12-13T03:09:38.297Z,86.08
2022-12-13T03:10:43.673Z,85.82
2022-12-13T03:12:18.149Z,85.63
2022-12-13T03:13:39.936Z,85.88
2022-12-13T03:14:50.321Z,85.93
2022-12-13T03:15:57.688Z,86.12
2022-12-13T03:17:02.284Z,86.38
2022-12-13T03:18:15.743Z,86.21
2022-12-13T03:19:20.583Z,86.03
2022-12-13T03:20:24.730Z,86.23
2022-12-13T03:21:27.642Z,86.09
2022-12-13T03:22:29.509Z,86.06
2022-12-13T03:23:32.264Z,86.10
2022-12-13T03:24:34.122Z,86.06
2022-12-13T03:25:36.980Z,86.23
2022-12-13T03:26:39.494Z,85.97
2022-12-13T03:27:42.350Z,86.17
2022-12-13T03:28:44.535Z,86.04
2022-12-13T03:29:47.290Z,86.04
2022-12-13T03:30:49.183Z,85.79
2022-12-13T03:31:51.960Z,85.79
2022-12-13T03:32:55.083Z,85.78
2022-12-13T03:33:58.299Z,85.80
2022-12-13T03:35:00.965Z,85.86
2022-12-13T03:36:04.044Z,85.43
2022-12-13T03:37:05.783Z,85.52
2022-12-13T03:38:09.040Z,85.46
2022-12-13T03:39:11.828Z,85.31
2022-12-13T03:40:13.775Z,85.52
2022-12-13T03:41:20.186Z,85.43
2022-12-13T03:42:21.962Z,85.41
2022-12-13T03:43:24.984Z,85.61
2022-12-13T03:44:31.712Z,85.49
2022-12-13T03:45:34.548Z,85.63
2022-12-13T03:46:36.454Z,85.70
2022-12-13T03:47:39.585Z,85.53
2022-12-13T03:48:42.684Z,85.55
2022-12-13T03:49:45.423Z,85.54
2022-12-13T03:50:57.569Z,85.60
2022-12-13T03:51:59.378Z,85.45
2022-12-13T03:53:04.695Z,85.44
2022-12-13T03:54:07.497Z,85.45
2022-12-13T03:55:09.329Z,85.60
2022-12-13T03:56:12.044Z,85.48
2022-12-13T03:57:15.657Z,85.49
2022-12-13T03:58:18.461Z,85.46
2022-12-13T03:59:21.200Z,85.39
2022-12-13T04:00:23.383Z,85.25
2022-12-13T04:01:26.375Z,85.36
2022-12-13T04:02:31.158Z,85.18
2022-12-13T04:03:34.638Z,85.03
2022-12-13T04:04:38.774Z,84.99
2022-12-13T04:05:40.560Z,84.94
2022-12-13T04:06:43.649Z,85.01
2022-12-13T04:07:48.358Z,85.08
2022-12-13T04:08:52.003Z,84.99
2022-12-13T04:09:53.962Z,84.85
2022-12-13T04:10:56.716Z,84.97
2022-12-13T04:12:17.080Z,85.18
2022-12-13T04:13:33.931Z,85.00
2022-12-13T04:14:36.678Z,85.31
2022-12-13T04:15:38.446Z,84.99
2022-12-13T04:16:41.297Z,84.96
2022-12-13T04:17:43.056Z,84.96
2022-12-13T04:18:54.295Z,85.11
2022-12-13T04:19:57.466Z,85.08
2022-12-13T04:21:00.226Z,85.04
2022-12-13T04:22:02.056Z,84.86
2022-12-13T04:23:09.926Z,84.84
2022-12-13T04:24:13.428Z,84.84
2022-12-13T04:25:15.433Z,84.98
2022-12-13T04:26:18.549Z,84.89
2022-12-13T04:27:20.331Z,84.85
2022-12-13T04:28:23.339Z,84.95
2022-12-13T04:29:25.520Z,85.00
2022-12-13T04:30:37.665Z,84.93
2022-12-13T04:31:41.036Z,84.96
2022-12-13T04:32:42.897Z,84.95
2022-12-13T04:33:45.614Z,85.09
2022-12-13T04:34:47.496Z,85.13
2022-12-13T04:35:52.201Z,85.04
2022-12-13T04:36:53.966Z,85.01
2022-12-13T04:37:57.032Z,85.01
2022-12-13T04:39:00.526Z,85.13
2022-12-13T04:40:02.778Z,85.26
2022-12-13T04:41:07.147Z,85.08
2022-12-13T04:42:09.245Z,85.07
2022-12-13T04:43:11.951Z,85.14
2022-12-13T04:44:27.892Z,85.00
2022-12-13T04:45:33.443Z,85.07
2022-12-13T04:46:35.793Z,85.12
2022-12-13T04:47:38.583Z,85.13
2022-12-13T04:48:41.470Z,85.21
2022-12-13T04:49:43.204Z,85.15
2022-12-13T04:50:46.010Z,85.10
2022-12-13T04:51:49.332Z,85.21
2022-12-13T04:52:52.125Z,85.18
2022-12-13T04:53:53.975Z,85.22
2022-12-13T04:54:57.212Z,85.17
2022-12-13T04:55:59.266Z,85.09
2022-12-13T04:57:01.956Z,85.11
2022-12-13T04:58:03.826Z,84.95
2022-12-13T04:59:06.600Z,85.44
2022-12-13T05:00:13.182Z,85.19
2022-12-13T05:01:16.059Z,85.24
2022-12-13T05:02:23.971Z,85.16
2022-12-13T05:03:27.872Z,85.13
2022-12-13T05:04:33.220Z,85.15
2022-12-13T05:05:39.573Z,85.29
2022-12-13T05:06:41.330Z,85.11
2022-12-13T05:07:45.469Z,85.44
2022-12-13T05:08:47.305Z,85.58
2022-12-13T05:09:50.127Z,85.51
2022-12-13T05:10:51.954Z,85.30
2022-12-13T05:12:00.982Z,85.35
2022-12-13T05:13:05.137Z,85.24
2022-12-13T05:14:06.949Z,85.40
2022-12-13T05:15:10.366Z,85.21
2022-12-13T05:16:12.534Z,85.22
2022-12-13T05:17:15.485Z,85.16
2022-12-13T05:18:17.261Z,85.21
2022-12-13T05:19:20.242Z,84.86
2022-12-13T05:20:22.436Z,84.95
2022-12-13T05:21:25.337Z,85.00
2022-12-13T05:22:27.248Z,85.13
2022-12-13T05:23:31.441Z,85.18
2022-12-13T05:24:33.233Z,85.14
2022-12-13T05:25:36.725Z,85.27
2022-12-13T05:26:38.712Z,85.10
2022-12-13T05:27:41.494Z,85.20
2022-12-13T05:28:44.337Z,85.24
2022-12-13T05:29:46.361Z,85.45
2022-12-13T05:30:49.078Z,85.35
2022-12-13T05:31:52.029Z,85.25
2022-12-13T05:32:55.200Z,85.22
2022-12-13T05:34:01.535Z,85.33
2022-12-13T05:35:05.148Z,85.15
2022-12-13T05:36:07.721Z,85.22
2022-12-13T05:37:10.451Z,85.07
2022-12-13T05:38:12.293Z,85.16
2022-12-13T05:39:27.879Z,85.22
2022-12-13T05:40:33.073Z,85.20
2022-12-13T05:41:36.878Z,85.14
2022-12-13T05:42:38.807Z,85.55
2022-12-13T05:43:42.810Z,85.42
2022-12-13T05:44:46.468Z,85.37
2022-12-13T05:45:48.495Z,85.19
2022-12-13T05:46:51.285Z,85.25
2022-12-13T05:47:53.169Z,85.20
2022-12-13T05:48:56.050Z,85.24
2022-12-13T05:49:59.351Z,85.19
2022-12-13T05:51:10.859Z,85.29
2022-12-13T05:52:18.015Z,85.35
2022-12-13T05:53:30.568Z,85.28
2022-12-13T05:54:35.706Z,85.21
2022-12-13T05:55:38.144Z,85.17
2022-12-13T05:56:40.851Z,84.94
2022-12-13T05:57:42.732Z,85.14
2022-12-13T05:58:54.296Z,84.82
2022-12-13T05:59:58.004Z,85.13
2022-12-13T06:01:05.980Z,84.97
2022-12-13T06:02:09.300Z,84.91
2022-12-13T06:03:11.205Z,85.07
2022-12-13T06:04:23.150Z,84.81
2022-12-13T06:05:25.356Z,85.15
2022-12-13T06:06:29.805Z,85.20
2022-12-13T06:07:32.653Z,85.18
2022-12-13T06:08:35.975Z,84.93
2022-12-13T06:09:39.867Z,85.04
2022-12-13T06:10:43.117Z,84.86
2022-12-13T06:11:45.978Z,85.13
2022-12-13T06:12:47.723Z,85.09
2022-12-13T06:13:52.940Z,85.06
2022-12-13T06:15:04.629Z,85.03
2022-12-13T06:16:25.563Z,84.96
2022-12-13T06:17:31.835Z,84.96
2022-12-13T06:18:35.032Z,85.14
2022-12-13T06:19:37.835Z,84.88
2022-12-13T06:20:39.730Z,84.90
2022-12-13T06:21:46.332Z,84.98
2022-12-13T06:22:48.414Z,85.05
2022-12-13T06:23:51.161Z,85.19
2022-12-13T06:24:55.416Z,84.89
2022-12-13T06:25:57.483Z,85.14
2022-12-13T06:27:00.992Z,85.17
2022-12-13T06:28:03.513Z,85.02
2022-12-13T06:29:06.292Z,85.05
2022-12-13T06:30:09.468Z,84.99
2022-12-13T06:31:12.704Z,84.89
2022-12-13T06:32:15.511Z,84.82
2022-12-13T06:33:23.597Z,85.25
2022-12-13T06:34:26.603Z,85.25
2022-12-13T06:35:30.484Z,85.10
2022-12-13T06:36:34.041Z,85.27
2022-12-13T06:37:36.834Z,85.37
2022-12-13T06:38:43.589Z,85.22
2022-12-13T06:39:46.659Z,85.10
2022-12-13T06:40:51.183Z,85.11
2022-12-13T06:41:53.895Z,85.21
2022-12-13T06:42:56.746Z,85.14
2022-12-13T06:43:58.866Z,85.19
2022-12-13T06:45:01.601Z,85.17
2022-12-13T06:46:04.903Z,85.16
2022-12-13T06:47:11.089Z,85.17
2022-12-13T06:48:17.498Z,85.06
2022-12-13T06:49:22.884Z,85.26
2022-12-13T06:50:25.937Z,85.17
2022-12-13T06:51:32.943Z,85.11
2022-12-13T06:52:36.455Z,84.93
2022-12-13T06:53:40.266Z,84.98
2022-12-13T06:54:43.648Z,84.71
2022-12-13T06:55:46.969Z,85.09
2022-12-13T06:56:50.127Z,84.95
2022-12-13T06:57:52.840Z,85.02
2022-12-13T06:59:01.217Z,84.95
2022-12-13T07:00:06.111Z,84.97
2022-12-13T07:01:15.080Z,84.88
2022-12-13T07:02:27.249Z,85.04
2022-12-13T07:03:29.885Z,84.99
2022-12-13T07:04:32.982Z,84.92
2022-12-13T07:05:35.793Z,85.04
2022-12-13T07:06:37.938Z,85.01
2022-12-13T07:07:40.680Z,84.90
2022-12-13T07:08:43.984Z,85.00
2022-12-13T07:09:47.069Z,84.70
2022-12-13T07:10:49.832Z,85.08
2022-12-13T07:11:54.183Z,84.62
2022-12-13T07:12:56.971Z,84.88
2022-12-13T07:14:00.669Z,84.97
2022-12-13T07:15:02.473Z,84.99
2022-12-13T07:16:05.897Z,84.89
2022-12-13T07:17:08.684Z,85.05
2022-12-13T07:18:11.423Z,84.91
2022-12-13T07:19:23.889Z,84.94
2022-12-13T07:20:27.326Z,84.89
2022-12-13T07:21:30.312Z,84.96
2022-12-13T07:22:34.462Z,85.09
2022-12-13T07:23:39.309Z,85.17
2022-12-13T07:24:44.400Z,85.08
2022-12-13T07:25:52.898Z,85.20
2022-12-13T07:26:56.993Z,85.09
2022-12-13T07:28:01.111Z,84.99
2022-12-13T07:29:05.401Z,85.00
2022-12-13T07:30:09.812Z,84.93
2022-12-13T07:31:13.552Z,85.08
2022-12-13T07:32:15.917Z,85.24
2022-12-13T07:33:22.387Z,85.02
2022-12-13T07:34:25.579Z,84.83
2022-12-13T07:35:28.537Z,85.07
2022-12-13T07:36:31.350Z,85.31
2022-12-13T07:37:35.837Z,85.30
2022-12-13T07:38:38.900Z,85.17
2022-12-13T07:39:40.941Z,85.11
2022-12-13T07:40:43.710Z,85.17
2022-12-13T07:41:46.715Z,85.20
2022-12-13T07:42:52.099Z,85.17
2022-12-13T07:43:55.737Z,85.22
2022-12-13T07:44:58.837Z,85.25
2022-12-13T07:46:02.579Z,85.36
2022-12-13T07:47:05.462Z,85.10
2022-12-13T07:48:08.605Z,85.25
2022-12-13T07:49:13.255Z,85.20
2022-12-13T07:50:24.620Z,85.12
2022-12-13T07:51:28.882Z,85.30
2022-12-13T07:52:31.633Z,85.37
2022-12-13T07:53:34.113Z,85.03
2022-12-13T07:54:37.161Z,85.04
2022-12-13T07:55:38.935Z,85.06
2022-12-13T07:56:41.674Z,85.22
2022-12-13T07:57:44.669Z,85.07
2022-12-13T07:58:48.782Z,85.07
2022-12-13T07:59:51.545Z,85.16
2022-12-13T08:00:54.636Z,85.15
2022-12-13T08:01:57.664Z,84.99
2022-12-13T08:03:05.863Z,85.01
2022-12-13T08:04:10.818Z,85.03
2022-12-13T08:05:25.728Z,85.04
2022-12-13T08:06:29.564Z,85.01
2022-12-13T08:07:32.308Z,84.88
2022-12-13T08:08:36.082Z,84.91
2022-12-13T08:09:39.222Z,84.93
2022-12-13T08:10:42.118Z,84.95
2022-12-13T08:11:45.310Z,84.90
2022-12-13T08:12:48.077Z,84.96
2022-12-13T08:13:52.311Z,85.06
2022-12-13T08:14:55.391Z,85.17
2022-12-13T08:16:02.610Z,85.08
2022-12-13T08:17:05.901Z,84.92
2022-12-13T08:18:08.639Z,84.91
2022-12-13T08:19:11.519Z,85.07
2022-12-13T08:20:13.526Z,84.99
2022-12-13T08:21:52.796Z,84.92
2022-12-13T08:22:55.607Z,85.00
2022-12-13T08:24:05.525Z,85.04
2022-12-13T08:25:09.117Z,85.10
2022-12-13T08:26:31.168Z,85.04
2022-12-13T08:27:34.022Z,84.65
2022-12-13T08:28:37.906Z,84.44
2022-12-13T08:29:42.049Z,84.49
2022-12-13T08:30:45.143Z,84.45
2022-12-13T08:31:47.928Z,84.44
2022-12-13T08:32:50.334Z,84.29
2022-12-13T08:33:53.484Z,84.41
2022-12-13T08:34:56.233Z,84.24
2022-12-13T08:35:58.991Z,84.17
2022-12-13T08:37:03.902Z,84.29
2022-12-13T08:38:07.393Z,84.53
2022-12-13T08:39:10.145Z,84.47
2022-12-13T08:40:13.154Z,84.35
2022-12-13T08:41:15.882Z,84.10
2022-12-13T08:42:20.322Z,84.34
2022-12-13T08:43:24.648Z,84.27
2022-12-13T08:44:27.875Z,84.26
2022-12-13T08:45:34.132Z,84.17
2022-12-13T08:46:36.933Z,84.02
2022-12-13T08:47:42.112Z,84.15
2022-12-13T08:48:44.731Z,84.11
2022-12-13T08:49:48.129Z,84.13
2022-12-13T08:50:50.886Z,83.88
2022-12-13T08:51:52.734Z,83.93
2022-12-13T08:52:55.697Z,83.96
2022-12-13T08:54:10.570Z,83.77
2022-12-13T08:55:15.995Z,84.11
2022-12-13T08:56:37.442Z,83.94
2022-12-13T08:57:40.588Z,83.92
2022-12-13T08:58:43.343Z,83.70
2022-12-13T08:59:46.380Z,83.52
2022-12-13T09:00:50.860Z,83.33
2022-12-13T09:01:53.842Z,83.44
2022-12-13T09:02:58.427Z,83.09
2022-12-13T09:04:01.145Z,83.10
2022-12-13T09:05:04.386Z,82.91
2022-12-13T09:06:10.261Z,83.02
2022-12-13T09:07:13.290Z,82.97
2022-12-13T09:08:25.238Z,83.06
2022-12-13T09:09:29.058Z,82.98
2022-12-13T09:10:38.188Z,83.28
2022-12-13T09:11:42.719Z,83.13
2022-12-13T09:12:45.873Z,83.15
2022-12-13T09:13:49.293Z,83.03
2022-12-13T09:14:52.159Z,82.94
2022-12-13T09:16:14.288Z,82.78
2022-12-13T09:17:25.861Z,82.13
2022-12-13T09:18:36.568Z,82.24
2022-12-13T09:19:39.757Z,82.45
2022-12-13T09:20:42.722Z,82.83
2022-12-13T09:21:45.712Z,82.68
2022-12-13T09:22:50.132Z,82.83
2022-12-13T09:23:52.896Z,83.02
2022-12-13T09:25:05.197Z,82.94
2022-12-13T09:26:08.224Z,83.06
2022-12-13T09:27:28.221Z,83.22
2022-12-13T09:28:31.853Z,83.05
2022-12-13T09:29:36.312Z,82.77
2022-12-13T09:30:40.385Z,82.71
2022-12-13T09:31:51.009Z,82.84
2022-12-13T09:33:28.335Z,82.97
2022-12-13T09:34:33.976Z,82.67
2022-12-13T09:35:38.994Z,82.61
2022-12-13T09:36:44.342Z,82.74
2022-12-13T09:37:47.207Z,82.73
2022-12-13T09:38:50.401Z,82.97
2022-12-13T09:39:54.985Z,83.20
2022-12-13T09:40:59.535Z,83.02
2022-12-13T09:42:10.300Z,83.24
2022-12-13T09:43:23.016Z,82.93
2022-12-13T09:44:42.782Z,82.76
2022-12-13T09:45:50.486Z,82.65
2022-12-13T09:46:55.781Z,82.59
2022-12-13T09:48:07.186Z,82.49
2022-12-13T09:49:23.081Z,82.41
2022-12-13T09:50:29.202Z,81.96
2022-12-13T09:51:47.292Z,82.11
2022-12-13T09:52:51.898Z,82.03
2022-12-13T09:54:02.576Z,82.52
2022-12-13T09:55:10.950Z,82.41
2022-12-13T09:56:13.966Z,82.31
2022-12-13T09:57:30.612Z,82.36
2022-12-13T09:58:57.605Z,82.43
2022-12-13T10:00:05.968Z,82.55
2022-12-13T10:01:23.303Z,81.92
2022-12-13T10:02:30.582Z,82.00
2022-12-13T10:03:34.628Z,82.36
2022-12-13T10:04:37.445Z,82.49
2022-12-13T10:05:40.479Z,82.27
2022-12-13T10:06:43.639Z,82.38
2022-12-13T10:07:46.192Z,82.08
2022-12-13T10:08:50.048Z,81.96
2022-12-13T10:10:01.712Z,82.14
2022-12-13T10:11:05.269Z,82.28
2022-12-13T10:12:11.868Z,82.22
2022-12-13T10:13:19.198Z,82.29
2022-12-13T10:14:26.235Z,82.10
2022-12-13T10:15:29.371Z,82.06
2022-12-13T10:16:39.875Z,82.05
2022-12-13T10:17:55.408Z,81.80
2022-12-13T10:18:58.694Z,82.17
2022-12-13T10:20:00.705Z,82.11
2022-12-13T10:21:05.741Z,81.78
2022-12-13T10:22:13.370Z,81.86
2022-12-13T10:23:35.771Z,81.50
2022-12-13T10:24:50.693Z,81.43
2022-12-13T10:26:03.173Z,81.81
2022-12-13T10:27:14.533Z,81.82
2022-12-13T10:28:19.287Z,81.92
2022-12-13T10:29:23.139Z,81.50
2022-12-13T10:30:29.096Z,81.61
2022-12-13T10:31:40.625Z,81.54
2022-12-13T10:32:49.323Z,81.69
2022-12-13T10:33:55.328Z,81.60
2022-12-13T10:34:58.825Z,81.69
2022-12-13T10:36:06.679Z,81.76
2022-12-13T10:37:26.204Z,81.71
2022-12-13T10:38:31.892Z,81.62
2022-12-13T10:39:40.530Z,81.82
2022-12-13T10:40:45.546Z,81.87
2022-12-13T10:41:48.457Z,81.37
2022-12-13T10:43:07.598Z,81.32
2022-12-13T10:44:18.618Z,81.14
2022-12-13T10:45:24.431Z,81.30
2022-12-13T10:46:31.103Z,81.46
2022-12-13T10:47:43.481Z,81.24
2022-12-13T10:48:50.563Z,81.36
2022-12-13T10:49:59.001Z,81.44
2022-12-13T10:51:04.583Z,81.23
2022-12-13T10:52:09.228Z,81.30
2022-12-13T10:53:19.616Z,81.07
2022-12-13T10:54:28.701Z,80.91
2022-12-13T10:55:41.115Z,80.93
2022-12-13T10:56:47.044Z,81.00
2022-12-13T10:57:52.187Z,80.91
2022-12-13T10:59:16.547Z,80.62
2022-12-13T11:00:41.303Z,80.82
2022-12-13T11:01:44.572Z,80.64
2022-12-13T11:02:55.299Z,80.66
2022-12-13T11:04:02.609Z,80.96
2022-12-13T11:05:25.940Z,80.96
2022-12-13T11:06:29.537Z,81.17
2022-12-13T11:07:33.487Z,80.98
2022-12-13T11:08:37.178Z,80.64
2022-12-13T11:09:39.938Z,80.42
2022-12-13T11:10:42.903Z,80.92
2022-12-13T11:11:46.616Z,80.97
2022-12-13T11:12:50.650Z,80.95
2022-12-13T11:13:54.410Z,80.33
2022-12-13T11:14:59.113Z,80.43
2022-12-13T11:16:01.824Z,80.39
2022-12-13T11:17:08.637Z,80.45
2022-12-13T11:18:23.175Z,80.42
2022-12-13T11:19:30.798Z,80.30
2022-12-13T11:20:35.703Z,80.30
2022-12-13T11:21:39.628Z,80.61
2022-12-13T11:22:44.169Z,80.70
2022-12-13T11:23:47.665Z,80.66
2022-12-13T11:24:52.372Z,80.77
2022-12-13T11:25:58.688Z,80.56
2022-12-13T11:27:05.917Z,80.46
2022-12-13T11:28:26.976Z,80.67
2022-12-13T11:29:58.912Z,80.83
2022-12-13T11:31:10.185Z,80.84
2022-12-13T11:32:22.894Z,80.67
2022-12-13T11:33:29.001Z,81.14
2022-12-13T11:34:39.191Z,80.94
2022-12-13T11:35:55.169Z,81.17
2022-12-13T11:37:03.728Z,81.20
2022-12-13T11:38:16.176Z,80.94
2022-12-13T11:39:21.306Z,81.04
2022-12-13T11:40:26.878Z,81.27
2022-12-13T11:41:33.332Z,80.99
2022-12-13T11:42:40.262Z,81.22
2022-12-13T11:43:47.746Z,81.43
2022-12-13T11:44:59.918Z,81.02
2022-12-13T11:46:06.148Z,81.14
2022-12-13T11:47:15.419Z,81.16
2022-12-13T11:48:21.429Z,80.74
2022-12-13T11:49:33.526Z,80.97
2022-12-13T11:50:40.439Z,81.34
2022-12-13T11:51:46.229Z,81.00
2022-12-13T11:52:53.718Z,81.04
2022-12-13T11:54:01.860Z,81.14
2022-12-13T11:55:08.033Z,81.00
2022-12-13T11:56:17.141Z,81.20
2022-12-13T11:57:28.474Z,81.00
2022-12-13T11:59:01.875Z,80.78
2022-12-13T12:00:13.211Z,80.88
2022-12-13T12:01:23.611Z,81.03
2022-12-13T12:02:30.424Z,81.11
2022-12-13T12:03:37.983Z,81.27
2022-12-13T12:04:47.240Z,81.17
2022-12-13T12:05:56.102Z,81.05
2022-12-13T12:07:24.339Z,80.74
2022-12-13T12:08:43.691Z,80.85
2022-12-13T12:09:51.622Z,80.86
2022-12-13T12:11:02.499Z,80.49
2022-12-13T12:12:09.258Z,80.50
2022-12-13T12:13:18.009Z,80.74
2022-12-13T12:14:24.578Z,80.51
2022-12-13T12:15:31.016Z,80.66
2022-12-13T12:16:39.805Z,80.40
2022-12-13T12:17:43.285Z,80.28
2022-12-13T12:18:46.476Z,80.45
2022-12-13T12:19:52.449Z,80.27
2022-12-13T12:21:05.985Z,80.26
2022-12-13T12:22:19.301Z,80.48
2022-12-13T12:23:30.067Z,80.41
2022-12-13T12:24:40.559Z,80.58
2022-12-13T12:25:48.443Z,80.46
2022-12-13T12:27:01.043Z,80.56
2022-12-13T12:28:12.100Z,80.54
2022-12-13T12:29:27.772Z,80.55
2022-12-13T12:30:39.293Z,80.10
2022-12-13T12:31:50.897Z,80.60
2022-12-13T12:32:55.831Z,80.59
2022-12-13T12:34:05.533Z,80.31
2022-12-13T12:35:23.124Z,80.56
2022-12-13T12:36:37.924Z,80.64
2022-12-13T12:37:48.393Z,80.56
2022-12-13T12:39:06.379Z,80.56
2022-12-13T12:41:14.230Z,80.65
2022-12-13T12:42:16.382Z,80.75
2022-12-13T12:43:23.755Z,80.87
2022-12-13T12:44:33.650Z,80.38
2022-12-13T12:45:57.313Z,80.57
2022-12-13T12:49:00.474Z,81.00
2022-12-13T12:50:27.409Z,80.82
2022-12-13T12:51:35.541Z,80.84
2022-12-13T12:52:50.625Z,80.61
2022-12-13T12:53:56.111Z,80.48
2022-12-13T12:55:05.212Z,80.97
2022-12-13T12:56:18.688Z,80.76
2022-12-13T12:57:24.792Z,80.50
2022-12-13T12:58:30.126Z,80.87
2022-12-13T12:59:38.589Z,80.43
2022-12-13T13:00:46.514Z,80.24
2022-12-13T13:01:57.431Z,80.37
2022-12-13T13:03:14.728Z,80.33
2022-12-13T13:04:23.223Z,80.27
2022-12-13T13:05:28.889Z,80.38
2022-12-13T13:06:36.026Z,80.54
2022-12-13T13:07:43.562Z,80.38
2022-12-13T13:08:59.224Z,80.47
2022-12-13T13:10:16.328Z,80.31
2022-12-13T13:11:27.904Z,80.24
2022-12-13T13:12:32.423Z,80.26
2022-12-13T13:13:46.056Z,80.36
2022-12-13T13:14:50.349Z,79.93
2022-12-13T13:15:57.842Z,79.94
2022-12-13T13:17:02.024Z,79.99
2022-12-13T13:18:04.749Z,79.94
2022-12-13T13:19:41.994Z,79.87
2022-12-13T13:20:45.054Z,79.91
2022-12-13T13:21:50.300Z,79.94
2022-12-13T13:23:10.305Z,79.93
2022-12-13T13:24:19.888Z,80.23
2022-12-13T13:25:32.726Z,79.87
2022-12-13T13:26:40.612Z,80.21
2022-12-13T13:27:44.942Z,80.00
2022-12-13T13:28:47.738Z,80.01
2022-12-13T13:29:50.968Z,80.03
2022-12-13T13:31:04.877Z,79.99
2022-12-13T13:32:27.914Z,79.90
2022-12-13T13:33:45.008Z,80.36
2022-12-13T13:34:49.488Z,80.36
2022-12-13T13:35:54.237Z,80.11
2022-12-13T13:36:59.258Z,80.09
2022-12-13T13:38:05.383Z,80.03
2022-12-13T13:39:16.413Z,80.26
2022-12-13T13:40:34.364Z,80.36
2022-12-13T13:41:56.685Z,80.53
2022-12-13T13:43:04.762Z,80.60
2022-12-13T13:44:35.501Z,80.46
2022-12-13T13:45:57.681Z,80.21
2022-12-13T13:47:12.827Z,80.54
2022-12-13T13:48:25.008Z,80.63
2022-12-13T13:49:31.622Z,80.64
2022-12-13T13:51:10.606Z,80.37
2022-12-13T13:52:25.568Z,80.39
2022-12-13T13:53:41.071Z,80.60
2022-12-13T13:55:40.647Z,80.69
2022-12-13T13:57:33.204Z,80.76
2022-12-13T13:59:07.002Z,80.62
2022-12-13T14:00:14.846Z,80.99
2022-12-13T14:01:47.981Z,80.94
2022-12-13T14:03:33.117Z,80.98
2022-12-13T14:04:59.529Z,81.16
2022-12-13T14:06:35.189Z,81.12
2022-12-13T14:07:54.379Z,81.17
2022-12-13T14:09:20.432Z,80.99
2022-12-13T14:10:51.408Z,80.91
2022-12-13T14:12:34.657Z,81.14
2022-12-13T14:14:21.352Z,81.34
2022-12-13T14:15:49.271Z,81.16
2022-12-13T14:17:41.458Z,81.21
2022-12-13T14:19:21.290Z,81.29
2022-12-13T14:20:46.226Z,81.39
2022-12-13T14:22:06.809Z,81.61
2022-12-13T14:23:21.806Z,81.26
2022-12-13T14:24:44.057Z,81.29
2022-12-13T14:25:59.951Z,81.21
2022-12-13T14:27:11.662Z,81.25
2022-12-13T14:28:18.500Z,81.04